ADDS METAR Data INFO
IDs: Format: Raw Decoded Include TAF

Data at: 0210 UTC 19 Jul 2018

KF17 190155Z AUTO 13003KT 10SM CLR 30/21 A2993 RMK AO2 T03010205
KF17 190135Z AUTO 15004KT 10SM CLR 31/20 A2993 RMK AO2 T03060202
KF17 190115Z AUTO 16004KT 10SM CLR 31/20 A2992 RMK AO2 T03110200
KF17 190055Z AUTO 16004KT 10SM CLR 32/20 A2992 RMK AO2 T03160198
KF17 190035Z AUTO 16005KT 10SM CLR 32/20 A2992 RMK AO2 T03210195
KF17 190015Z AUTO 16004KT 10SM CLR 33/19 A2992 RMK AO2 T03260194
KF17 182355Z AUTO 17004KT 10SM CLR 33/20 A2991 RMK AO2 T03320195 10356 20331
KF17 182335Z AUTO 16004KT 10SM CLR 34/20 A2991 RMK AO2 T03440201
KF17 182315Z AUTO 15004G16KT 10SM CLR 34/21 A2991 RMK AO2 T03360208
KF17 182255Z AUTO 10010G16KT 070V130 10SM CLR 34/21 A2992 RMK AO2 T03420209
KF17 182235Z AUTO 10009G17KT 10SM CLR 34/21 A2992 RMK AO2 T03430211
KF17 182215Z AUTO 11008G16KT 100V160 10SM CLR 35/21 A2992 RMK AO2 T03490206
KF17 182155Z AUTO 12010G18KT 10SM CLR 35/21 A2992 RMK AO2 T03500210
KF17 182135Z AUTO 11008G14KT 10SM CLR 35/21 A2993 RMK AO2 T03450211
KF17 182115Z AUTO 12008G15KT 10SM CLR 34/21 A2993 RMK AO2 T03390214
KF17 182055Z AUTO 10009G16KT 10SM CLR 33/21 A2994 RMK AO2 T03340212
KF17 182035Z AUTO 04005KT 10SM SCT060 34/20 A2995 RMK AO2 T03400200
KF17 182015Z AUTO 00000KT 10SM SCT060 34/19 A2996 RMK AO2 T03440193
KF17 181955Z AUTO 18003KT 10SM SCT065 SCT100 35/19 A2997 RMK AO2 T03470186
KF17 181935Z AUTO 12006KT 10SM BKN100 35/19 A2997 RMK AO2 T03490190
KF17 181915Z AUTO 00000KT 10SM BKN100 35/18 A2998 RMK AO2 T03480179
KF17 181855Z AUTO 35005KT 10SM SCT110 35/19 A2999 RMK AO2 T03520185
KF17 181835Z AUTO 00000KT 10SM BKN100 34/18 A3000 RMK AO2 T03370184
KF17 181815Z AUTO 31004KT 10SM BKN100 33/18 A3000 RMK AO2 T03330183
KF17 181755Z AUTO 31004KT 10SM BKN100 34/18 A3000 RMK AO2 T03350182 10337 20256
KF17 181735Z AUTO 00000KT 10SM BKN100 33/19 A3001 RMK AO2 T03330193
KF17 181715Z AUTO 22003KT 10SM BKN100 33/20 A3001 RMK AO2 T03260200
KF17 181655Z AUTO 18005KT 10SM SCT100 32/20 A3001 RMK AO2 T03200199
KF17 181635Z AUTO 00000KT 10SM CLR 32/20 A3002 RMK AO2 T03230201
KF17 181615Z AUTO 20004KT 10SM CLR 32/21 A3002 RMK AO2 T03150210
KF17 181555Z AUTO 21006KT 10SM CLR 30/20 A3002 RMK AO2 T03030202
KF17 181535Z AUTO 24005KT 10SM CLR 30/20 A3001 RMK AO2 T02980204
KF17 181515Z AUTO 27007KT 10SM CLR 30/21 A3002 RMK AO2 T02970206
KF17 181455Z AUTO 24007KT 10SM CLR 29/21 A3002 RMK AO2 T02910211
KF17 181435Z AUTO 26006KT 10SM CLR 28/21 A3002 RMK AO2 T02800212
KF17 181415Z AUTO 24007KT 10SM CLR 28/21 A3002 RMK AO2 T02750211
KF17 181355Z AUTO 22007KT 190V250 10SM SCT100 27/21 A3002 RMK AO2 T02710211
KF17 181335Z AUTO 22007KT 180V270 10SM BKN100 27/22 A3002 RMK AO2 T02690215
KF17 181315Z AUTO 23006KT 10SM SCT100 26/22 A3002 RMK AO2 T02630216
KF17 181255Z AUTO 23004KT 10SM SCT050 SCT060 BKN100 26/22 A3002 RMK AO2 T02570220
KF17 181235Z AUTO 23005KT 10SM BKN100 BKN120 26/22 A3002 RMK AO2 T02580218
KF17 181215Z AUTO 22004KT 10SM SCT100 SCT120 26/22 A3002 RMK AO2 T02580220
KF17 181155Z AUTO 23005KT 10SM SCT120 26/22 A3002 RMK AO2 T02570222 10276 20254
KF17 181135Z AUTO 24003KT 10SM BKN120 26/23 A3001 RMK AO2 T02560227
KF17 181115Z AUTO 25003KT 10SM BKN120 26/23 A3001 RMK AO2 T02550231
KF17 181055Z AUTO 00000KT 10SM SCT120 26/24 A3000 RMK AO2 T02550235
KF17 181035Z AUTO 19004KT 10SM CLR 26/24 A2999 RMK AO2 T02550237
KF17 181015Z AUTO 21003KT 10SM CLR 26/24 A2999 RMK AO2 T02560238
KF17 180955Z AUTO 21003KT 10SM CLR 26/24 A2999 RMK AO2 T02570240
KF17 180935Z AUTO 20003KT 10SM CLR 26/24 A2999 RMK AO2 T02570241
KF17 180915Z AUTO 21003KT 10SM CLR 26/24 A2998 RMK AO2 T02590241
KF17 180855Z AUTO 00000KT 10SM CLR 26/24 A2998 RMK AO2 T02590241
KF17 180835Z AUTO 16003KT 10SM CLR 26/24 A2998 RMK AO2 T02580240
KF17 180815Z AUTO 14004KT 10SM CLR 26/24 A2998 RMK AO2 T02600237
KF17 180755Z AUTO 20003KT 10SM CLR 26/24 A2997 RMK AO2 T02630235
KF17 180735Z AUTO 21004KT 10SM CLR 27/23 A2997 RMK AO2 T02650233
KF17 180715Z AUTO 20003KT 10SM CLR 27/23 A2997 RMK AO2 T02680231
KF17 180655Z AUTO 20005KT 10SM CLR 27/23 A2998 RMK AO2 T02700228
KF17 180635Z AUTO 21004KT 10SM CLR 27/23 A2999 RMK AO2 T02720225
KF17 180615Z AUTO 20005KT 10SM CLR 28/22 A2999 RMK AO2 T02750223
KF17 180555Z AUTO 20006KT 170V230 10SM CLR 28/22 A2999 RMK AO2 T02760221 10327 20257 403500250
KF17 180535Z AUTO 19005KT 10SM CLR 27/22 A3000 RMK AO2 T02720222
KF17 180515Z AUTO 17003KT 10SM CLR 28/22 A3000 RMK AO2 T02750220
KF17 180455Z AUTO 20005KT 10SM CLR 28/22 A3000 RMK AO2 T02750220
KF17 180435Z AUTO 18003KT 10SM CLR 27/22 A3000 RMK AO2 T02690218
KF17 180415Z AUTO 18004KT 10SM CLR 27/22 A3001 RMK AO2 T02700218
KF17 180355Z AUTO 18004KT 10SM CLR 26/22 A3000 RMK AO2 T02590220
KF17 180335Z AUTO 00000KT 10SM CLR 27/22 A3001 RMK AO2 T02710217
KF17 180315Z AUTO 00000KT 10SM CLR 27/22 A3001 RMK AO2 T02720215
KF17 180255Z AUTO 16003KT 10SM CLR 27/22 A3000 RMK AO2 T02710216
KF17 180235Z AUTO 17003KT 10SM CLR 27/22 A3000 RMK AO2 T02710222
KF17 180215Z AUTO 00000KT 10SM CLR 28/22 A3000 RMK AO2 T02790219
KF17 180155Z AUTO 00000KT 10SM CLR 29/22 A2999 RMK AO2 T02890216
KF17 180135Z AUTO 00000KT 10SM CLR 29/22 A2998 RMK AO2 T02920216
KF17 180115Z AUTO 00000KT 10SM CLR 31/21 A2998 RMK AO2 T03050208
KF17 180055Z AUTO 10SM CLR 31/21 A2999 RMK AO2 T03120205
KF17 180035Z AUTO 10SM CLR 32/20 A2999 RMK AO2 T03240196
KF17 180015Z AUTO 00000KT 10SM CLR 33/20 A2999 RMK AO2 T03270196
KF17 172355Z AUTO 17003KT 10SM CLR 33/20 A2999 RMK AO2 T03280197 10350 20328
KF17 172335Z AUTO 17003KT 10SM CLR 33/19 A2998 RMK AO2 T03320192
KF17 172315Z AUTO 18003KT 10SM CLR 34/17 A2998 RMK AO2 T03380174
KF17 172255Z AUTO 00000KT 10SM CLR 34/17 A2999 RMK AO2 T03400167
KF17 172235Z AUTO 00000KT 10SM CLR 35/15 A2999 RMK AO2 T03450151
KF17 172215Z AUTO 00000KT 10SM CLR 35/15 A2999 RMK AO2 T03450149
KF17 172155Z AUTO 00000KT 10SM CLR 34/16 A2999 RMK AO2 T03440164
KF17 172135Z AUTO 00000KT 10SM CLR 34/15 A3000 RMK AO2 T03440151
KF17 172115Z AUTO 17003KT 10SM CLR 35/16 A3000 RMK AO2 T03450157
KF17 172055Z AUTO 00000KT 10SM CLR 35/13 A3000 RMK AO2 T03470130
KF17 172035Z AUTO 26003KT 10SM CLR 34/14 A3001 RMK AO2 T03440140
KF17 172015Z AUTO 00000KT 10SM CLR 34/14 A3002 RMK AO2 T03440137
KF17 171955Z AUTO 26004KT 10SM CLR 35/14 A3002 RMK AO2 T03450140
KF17 171935Z AUTO 22004KT 10SM CLR 34/15 A3003 RMK AO2 T03440146
KF17 171915Z AUTO 30003KT 10SM CLR 34/14 A3004 RMK AO2 T03420143
KF17 171900Z AUTO 29003KT 10SM CLR 35/14 A3005 RMK AO2 T03450135
KF17 171830Z AUTO 26005KT 10SM CLR 35/14 A3005 RMK AO2 T03450138
KF17 171815Z AUTO 29005KT 10SM CLR 34/13 A3006 RMK AO2 T03400134
KF17 171755Z AUTO 28005KT 10SM CLR 34/14 A3006 RMK AO2 T03430136 10343 20250
KF17 171735Z AUTO 24009KT 10SM CLR 34/15 A3007 RMK AO2 T03390153
KF17 171715Z AUTO 24007KT 200V260 10SM CLR 34/15 A3007 RMK AO2 T03350154
KF17 171655Z AUTO 20003KT 10SM CLR 33/17 A3007 RMK AO2 T03320169
KF17 171635Z AUTO 22006KT 10SM CLR 32/18 A3007 RMK AO2 T03220177
KF17 171615Z AUTO 23005KT 10SM CLR 32/18 A3007 RMK AO2 T03200176
KF17 171555Z AUTO 22007KT 10SM CLR 31/17 A3007 RMK AO2 T03140171
KF17 171535Z AUTO 25007KT 10SM CLR 31/18 A3007 RMK AO2 T03110180
KF17 171515Z AUTO 26009KT 10SM CLR 30/18 A3007 RMK AO2 T03020181
KF17 171455Z AUTO 24006KT 10SM CLR 30/20 A3008 RMK AO2 T02970195
KF17 171435Z AUTO 22005KT 10SM CLR 29/20 A3008 RMK AO2 T02870198
KF17 171415Z AUTO 24005KT 10SM CLR 28/20 A3007 RMK AO2 T02750198